createdAt,value
2017-12-15T00:02:16.346Z,1.57
2017-12-15T00:04:44.954Z,1.17
2017-12-15T00:07:13.468Z,1.03
2017-12-15T00:09:42.113Z,1.40
2017-12-15T00:12:10.613Z,1.50
2017-12-15T00:14:39.065Z,1.03
2017-12-15T00:17:07.769Z,2.40
2017-12-15T00:19:36.236Z,1.20
2017-12-15T00:22:04.823Z,5.20
2017-12-15T00:24:33.327Z,0.90
2017-12-15T00:27:01.947Z,1.43
2017-12-15T00:29:30.408Z,1.93
2017-12-15T00:31:58.961Z,3.07
2017-12-15T00:34:27.721Z,0.80
2017-12-15T00:36:56.281Z,0.97
2017-12-15T00:39:24.900Z,1.27
2017-12-15T00:41:53.410Z,1.40
2017-12-15T00:44:21.866Z,1.77
2017-12-15T00:46:50.409Z,1.90
2017-12-15T00:49:18.836Z,1.20
2017-12-15T00:51:47.402Z,1.30
2017-12-15T00:54:15.995Z,0.93
2017-12-15T00:56:44.509Z,1.07
2017-12-15T00:59:12.979Z,1.30
2017-12-15T01:01:41.468Z,1.97
2017-12-15T01:04:10.156Z,1.00
2017-12-15T01:06:38.705Z,0.97
2017-12-15T01:09:07.191Z,0.90
2017-12-15T01:11:35.781Z,1.53
2017-12-15T01:14:04.265Z,1.27
2017-12-15T01:16:32.957Z,1.33
2017-12-15T01:19:01.637Z,1.20
2017-12-15T01:21:30.337Z,1.03
2017-12-15T01:23:59.008Z,1.37
2017-12-15T01:26:27.742Z,5.93
2017-12-15T01:28:56.202Z,1.07
2017-12-15T01:31:24.751Z,1.30
2017-12-15T01:33:53.204Z,0.83
2017-12-15T01:36:21.673Z,1.30
2017-12-15T01:38:50.143Z,1.00
2017-12-15T01:41:18.619Z,1.17
2017-12-15T01:43:47.105Z,1.20
2017-12-15T01:46:15.811Z,0.80
2017-12-15T01:48:44.261Z,1.03
2017-12-15T01:51:13.110Z,1.00
2017-12-15T01:53:41.741Z,0.90
2017-12-15T01:56:10.285Z,1.30
2017-12-15T01:58:38.836Z,0.90
2017-12-15T02:01:07.546Z,0.80
2017-12-15T02:03:36.110Z,0.80
2017-12-15T02:06:04.619Z,1.10
2017-12-15T02:08:33.080Z,0.77
2017-12-15T02:11:01.617Z,1.10
2017-12-15T02:13:30.467Z,0.90
2017-12-15T02:15:59.200Z,1.07
2017-12-15T02:18:27.829Z,1.43
2017-12-15T02:20:56.426Z,1.00
2017-12-15T02:23:24.989Z,0.93
2017-12-15T02:25:53.486Z,1.33
2017-12-15T02:28:22.109Z,1.10
2017-12-15T02:30:50.594Z,2.40
2017-12-15T02:33:19.062Z,3.10
2017-12-15T02:35:47.529Z,1.47
2017-12-15T02:38:15.982Z,1.30
2017-12-15T02:40:44.525Z,1.20
2017-12-15T02:43:13.025Z,1.23
2017-12-15T02:45:41.529Z,2.73
2017-12-15T02:48:09.995Z,1.47
2017-12-15T02:50:38.488Z,4.00
2017-12-15T02:53:06.972Z,3.10
2017-12-15T02:55:35.506Z,1.83
2017-12-15T02:58:04.016Z,1.97
2017-12-15T03:00:32.613Z,1.63
2017-12-15T03:03:01.570Z,1.10
2017-12-15T03:05:30.208Z,1.17
2017-12-15T03:07:58.838Z,0.80
2017-12-15T03:10:27.319Z,1.40
2017-12-15T03:12:55.846Z,1.30
2017-12-15T03:15:24.544Z,2.80
2017-12-15T03:17:53.024Z,1.33
2017-12-15T03:20:21.730Z,1.37
2017-12-15T03:22:50.270Z,2.10
2017-12-15T03:25:18.895Z,1.20
2017-12-15T03:27:47.400Z,1.00
2017-12-15T03:30:16.073Z,1.77
2017-12-15T03:32:44.626Z,1.10
2017-12-15T03:35:13.159Z,3.20
2017-12-15T03:37:41.633Z,1.40
2017-12-15T03:40:10.180Z,1.10
2017-12-15T03:42:38.686Z,1.00
2017-12-15T03:45:07.341Z,1.23
2017-12-15T03:47:35.799Z,1.87
2017-12-15T03:50:04.317Z,3.37
2017-12-15T03:52:32.962Z,0.97
2017-12-15T03:55:01.452Z,0.90
2017-12-15T03:57:29.996Z,1.27
2017-12-15T03:59:58.634Z,0.87
2017-12-15T04:02:27.326Z,1.40
2017-12-15T04:04:55.766Z,1.10
2017-12-15T04:07:24.294Z,1.27
2017-12-15T04:09:52.781Z,1.60
2017-12-15T04:12:21.307Z,1.03
2017-12-15T04:14:49.751Z,1.10
2017-12-15T04:17:18.252Z,1.00
2017-12-15T04:19:46.727Z,1.10
2017-12-15T04:22:15.218Z,1.10
2017-12-15T04:24:43.825Z,1.30
2017-12-15T04:27:12.594Z,0.90
2017-12-15T04:29:41.213Z,1.23
2017-12-15T04:32:09.925Z,1.00
2017-12-15T04:34:38.569Z,1.20
2017-12-15T04:37:07.117Z,1.20
2017-12-15T04:39:35.616Z,1.10
2017-12-15T04:42:04.169Z,1.63
2017-12-15T04:44:32.718Z,1.43
2017-12-15T04:47:01.328Z,1.20
2017-12-15T04:49:29.789Z,1.07
2017-12-15T04:51:58.325Z,1.13
2017-12-15T04:54:27.057Z,1.37
2017-12-15T04:56:55.774Z,1.30
2017-12-15T04:59:24.430Z,1.20
2017-12-15T05:04:48.895Z,1.53
2017-12-15T05:07:17.525Z,1.00
2017-12-15T05:09:46.009Z,1.10
2017-12-15T05:12:14.828Z,1.60
2017-12-15T05:14:43.387Z,1.03
2017-12-15T05:17:12.063Z,1.20
2017-12-15T05:19:40.621Z,1.23
2017-12-15T05:22:09.181Z,1.03
2017-12-15T05:24:37.657Z,1.30
2017-12-15T05:27:06.190Z,1.20
2017-12-15T05:29:34.708Z,1.07
2017-12-15T05:32:03.337Z,0.80
2017-12-15T05:34:31.799Z,1.10
2017-12-15T05:37:00.309Z,0.93
2017-12-15T05:39:28.790Z,1.20
2017-12-15T05:41:57.490Z,1.10
2017-12-15T05:44:26.196Z,2.03
2017-12-15T05:46:55.037Z,1.17
2017-12-15T05:49:23.488Z,1.83
2017-12-15T05:51:52.002Z,1.13
2017-12-15T05:54:20.463Z,1.27
2017-12-15T05:56:49.193Z,1.83
2017-12-15T05:59:17.699Z,1.10
2017-12-15T06:01:46.257Z,1.60
2017-12-15T06:04:14.719Z,1.00
2017-12-15T06:06:43.609Z,2.30
2017-12-15T06:09:12.070Z,2.10
2017-12-15T06:11:40.595Z,2.30
2017-12-15T06:14:09.135Z,2.87
2017-12-15T06:16:37.886Z,1.13
2017-12-15T06:19:06.537Z,1.20
2017-12-15T06:21:35.039Z,2.13
2017-12-15T06:24:03.679Z,1.60
2017-12-15T06:26:32.245Z,2.40
2017-12-15T06:29:00.746Z,2.30
2017-12-15T06:31:29.397Z,8.30
2017-12-15T06:33:58.021Z,4.20
2017-12-15T06:36:26.530Z,5.37
2017-12-15T06:38:55.042Z,3.57
2017-12-15T06:41:23.557Z,3.10
2017-12-15T06:43:52.117Z,4.40
2017-12-15T06:46:20.620Z,6.47
2017-12-15T06:48:49.098Z,4.37
2017-12-15T06:51:17.586Z,9.93
2017-12-15T06:53:46.037Z,5.17
2017-12-15T06:56:14.561Z,2.70
2017-12-15T06:58:49.993Z,5.87
2017-12-15T07:01:18.718Z,12.93
2017-12-15T07:03:47.367Z,3.30
2017-12-15T07:06:15.973Z,2.83
2017-12-15T07:08:44.443Z,4.17
2017-12-15T07:11:12.985Z,7.90
2017-12-15T07:13:41.717Z,3.90
2017-12-15T07:16:10.419Z,4.83
2017-12-15T07:18:39.073Z,2.93
2017-12-15T07:21:07.700Z,3.70
2017-12-15T07:23:36.401Z,4.30
2017-12-15T07:26:04.921Z,3.90
2017-12-15T07:28:33.376Z,7.97
2017-12-15T07:31:01.945Z,5.27
2017-12-15T07:33:30.608Z,7.43
2017-12-15T07:35:59.281Z,8.30
2017-12-15T07:38:27.912Z,1.93
2017-12-15T07:40:56.460Z,6.77
2017-12-15T07:43:24.944Z,9.47
2017-12-15T07:45:54.303Z,6.93
2017-12-15T07:48:23.484Z,6.90
2017-12-15T07:50:52.020Z,11.80
2017-12-15T07:53:20.904Z,10.20
2017-12-15T07:55:49.572Z,5.93
2017-12-15T07:58:18.245Z,5.60
2017-12-15T08:00:46.853Z,8.13
2017-12-15T08:03:15.421Z,6.93
2017-12-15T08:05:43.949Z,8.50
2017-12-15T08:08:12.442Z,3.77
2017-12-15T08:10:40.953Z,9.30
2017-12-15T08:13:09.564Z,5.10
2017-12-15T08:15:38.580Z,5.27
2017-12-15T08:18:07.259Z,4.37
2017-12-15T08:20:35.824Z,8.20
2017-12-15T08:23:04.957Z,5.27
2017-12-15T08:25:33.621Z,7.07
2017-12-15T08:28:02.342Z,4.90
2017-12-15T08:30:31.661Z,7.23
2017-12-15T08:33:00.269Z,6.80
2017-12-15T08:35:28.948Z,6.13
2017-12-15T08:37:57.645Z,6.27
2017-12-15T08:40:26.333Z,5.03
2017-12-15T08:42:54.855Z,5.80
2017-12-15T08:45:23.345Z,6.23
2017-12-15T08:47:51.990Z,3.17
2017-12-15T08:50:20.514Z,7.67
2017-12-15T08:52:48.986Z,4.47
2017-12-15T08:55:17.627Z,10.30
2017-12-15T08:57:46.154Z,6.40
2017-12-15T09:00:14.854Z,3.07
2017-12-15T09:02:43.452Z,6.77
2017-12-15T09:05:11.978Z,5.00
2017-12-15T09:07:40.462Z,5.17
2017-12-15T09:10:09.140Z,5.80
2017-12-15T09:12:37.637Z,3.97
2017-12-15T09:15:06.296Z,9.30
2017-12-15T09:17:34.796Z,4.60
2017-12-15T09:20:03.291Z,7.80
2017-12-15T09:22:32.482Z,4.20
2017-12-15T09:25:01.288Z,10.13
2017-12-15T09:27:29.913Z,5.53
2017-12-15T09:29:58.457Z,6.20
2017-12-15T09:34:36.911Z,4.70
2017-12-15T09:37:05.347Z,5.00
2017-12-15T09:39:33.631Z,3.97
2017-12-15T09:42:01.991Z,2.87
2017-12-15T09:44:30.351Z,5.57
2017-12-15T09:46:58.713Z,4.40
2017-12-15T09:49:27.215Z,3.50
2017-12-15T09:51:55.694Z,5.13
2017-12-15T09:54:24.064Z,3.97
2017-12-15T09:56:52.363Z,2.77
2017-12-15T09:59:20.699Z,3.73
2017-12-15T10:01:49.107Z,3.00
2017-12-15T10:04:17.378Z,2.67
2017-12-15T10:06:45.669Z,4.70
2017-12-15T10:09:13.951Z,3.47
2017-12-15T10:11:42.248Z,2.37
2017-12-15T10:14:10.470Z,2.63
2017-12-15T10:16:39.007Z,2.57
2017-12-15T10:19:07.428Z,4.97
2017-12-15T10:21:35.944Z,4.60
2017-12-15T10:24:04.380Z,7.83
2017-12-15T10:26:32.880Z,6.10
2017-12-15T10:29:01.171Z,6.10
2017-12-15T10:31:29.689Z,5.77
2017-12-15T10:33:58.351Z,7.77
2017-12-15T10:36:26.901Z,10.20
2017-12-15T10:38:55.201Z,4.70
2017-12-15T10:41:23.479Z,6.73
2017-12-15T10:43:51.772Z,5.87
2017-12-15T10:46:20.054Z,3.57
2017-12-15T10:48:48.323Z,6.30
2017-12-15T10:51:16.787Z,6.77
2017-12-15T10:53:45.089Z,4.20
2017-12-15T10:56:13.364Z,8.47
2017-12-15T10:58:41.627Z,4.30
2017-12-15T11:01:09.916Z,4.37
2017-12-15T11:03:38.348Z,3.77
2017-12-15T11:06:06.698Z,3.53
2017-12-15T11:08:34.996Z,9.03
2017-12-15T11:11:03.506Z,4.40
2017-12-15T11:13:31.838Z,3.73
2017-12-15T11:16:00.259Z,4.30
2017-12-15T11:18:28.635Z,6.03
2017-12-15T11:20:56.941Z,3.73
2017-12-15T11:23:25.408Z,7.63
2017-12-15T11:25:53.743Z,10.17
2017-12-15T11:28:22.207Z,4.40
2017-12-15T11:30:50.504Z,3.93
2017-12-15T11:33:18.818Z,4.10
2017-12-15T11:35:47.152Z,2.93
2017-12-15T11:38:15.447Z,2.70
2017-12-15T11:40:43.723Z,4.40
2017-12-15T11:43:12.036Z,3.73
2017-12-15T11:45:40.344Z,2.50
2017-12-15T11:48:08.655Z,4.80
2017-12-15T11:50:37.113Z,4.43
2017-12-15T11:53:05.416Z,2.37
2017-12-15T11:55:33.716Z,2.50
2017-12-15T11:58:02.064Z,4.27
2017-12-15T12:00:30.331Z,2.70
2017-12-15T12:02:58.573Z,2.60
2017-12-15T12:05:26.997Z,3.10
2017-12-15T12:07:55.247Z,4.40
2017-12-15T12:10:23.566Z,3.20
2017-12-15T12:12:51.815Z,2.23
2017-12-15T12:15:20.100Z,2.23
2017-12-15T12:17:48.492Z,2.17
2017-12-15T12:20:16.809Z,3.07
2017-12-15T12:22:45.092Z,2.80
2017-12-15T12:25:13.631Z,6.13
2017-12-15T12:27:42.103Z,3.10
2017-12-15T12:30:10.430Z,2.90
2017-12-15T12:32:38.760Z,2.17
2017-12-15T12:35:07.127Z,2.13
2017-12-15T12:37:35.421Z,3.20
2017-12-15T12:40:03.708Z,1.93
2017-12-15T12:42:31.987Z,1.97
2017-12-15T12:45:00.252Z,10.37
2017-12-15T12:47:28.640Z,9.53
2017-12-15T12:49:56.958Z,10.47
2017-12-15T12:52:25.319Z,8.20
2017-12-15T12:54:53.715Z,6.67
2017-12-15T12:57:22.065Z,6.13
2017-12-15T12:59:50.363Z,7.63
2017-12-15T13:02:18.680Z,8.53
2017-12-15T13:04:46.956Z,5.07
2017-12-15T13:07:15.294Z,5.23
2017-12-15T13:09:43.577Z,5.70
2017-12-15T13:12:12.107Z,5.30
2017-12-15T13:14:40.476Z,3.97
2017-12-15T13:17:08.775Z,2.57
2017-12-15T13:19:37.036Z,3.00
2017-12-15T13:22:05.480Z,6.07
2017-12-15T13:24:33.911Z,5.83
2017-12-15T13:27:02.192Z,6.13
2017-12-15T13:29:30.607Z,11.13
2017-12-15T13:31:58.887Z,4.43
2017-12-15T13:34:27.183Z,6.03
2017-12-15T13:36:55.563Z,6.07
2017-12-15T13:39:23.919Z,7.33
2017-12-15T13:41:52.266Z,8.97
2017-12-15T13:44:20.556Z,13.13
2017-12-15T13:46:48.851Z,5.00
2017-12-15T13:49:17.204Z,7.77
2017-12-15T13:51:45.487Z,5.53
2017-12-15T13:54:13.779Z,5.80
2017-12-15T13:56:42.088Z,10.97
2017-12-15T13:59:10.559Z,8.93
2017-12-15T14:01:38.850Z,4.10
2017-12-15T14:04:07.159Z,12.80
2017-12-15T14:06:35.444Z,3.83
2017-12-15T14:09:03.775Z,7.10
2017-12-15T14:11:32.092Z,5.90
2017-12-15T14:14:00.575Z,9.17
2017-12-15T14:16:29.119Z,2.80
2017-12-15T14:18:57.433Z,6.90
2017-12-15T14:21:25.871Z,10.87
2017-12-15T14:23:54.135Z,4.83
2017-12-15T14:26:22.407Z,3.63
2017-12-15T14:28:50.648Z,7.10
2017-12-15T14:31:19.325Z,10.20
2017-12-15T14:33:48.035Z,6.77
2017-12-15T14:36:16.311Z,11.90
2017-12-15T14:38:44.895Z,10.07
2017-12-15T14:41:13.224Z,4.17
2017-12-15T14:43:41.525Z,5.87
2017-12-15T14:46:09.872Z,5.23
2017-12-15T14:48:43.876Z,17.30
2017-12-15T14:51:06.509Z,3.33
2017-12-15T14:53:34.775Z,15.40
2017-12-15T14:56:03.143Z,4.40
2017-12-15T14:58:31.438Z,3.87
2017-12-15T15:00:59.953Z,5.53
2017-12-15T15:03:28.211Z,3.60
2017-12-15T15:05:56.539Z,2.00
2017-12-15T15:08:25.104Z,5.27
2017-12-15T15:10:53.553Z,7.00
2017-12-15T15:13:21.835Z,10.43
2017-12-15T15:15:50.134Z,4.10
2017-12-15T15:18:18.398Z,3.70
2017-12-15T15:20:46.866Z,4.87
2017-12-15T15:23:15.170Z,14.97
2017-12-15T15:25:43.466Z,13.83
2017-12-15T15:28:11.884Z,5.33
2017-12-15T15:30:40.184Z,4.00
2017-12-15T15:33:08.532Z,4.33
2017-12-15T15:35:36.896Z,2.90
2017-12-15T15:38:05.202Z,11.73
2017-12-15T15:40:33.687Z,3.70
2017-12-15T15:43:01.951Z,9.10
2017-12-15T15:45:30.246Z,13.63
2017-12-15T15:47:58.494Z,6.70
2017-12-15T15:50:26.778Z,8.00
2017-12-15T15:52:55.266Z,9.07
2017-12-15T15:55:23.770Z,6.00
2017-12-15T15:57:52.055Z,7.53
2017-12-15T16:00:20.533Z,8.07
2017-12-15T16:02:48.803Z,10.80
2017-12-15T16:05:17.116Z,8.87
2017-12-15T16:07:45.532Z,9.50
2017-12-15T16:10:13.819Z,11.73
2017-12-15T16:12:42.123Z,6.30
2017-12-15T16:15:10.440Z,12.37
2017-12-15T16:17:38.812Z,14.00
2017-12-15T16:20:07.115Z,5.67
2017-12-15T16:22:35.598Z,13.47
2017-12-15T16:25:03.999Z,4.07
2017-12-15T16:27:32.325Z,6.20
2017-12-15T16:30:00.647Z,11.50
2017-12-15T16:32:28.960Z,3.50
2017-12-15T16:34:57.252Z,5.00
2017-12-15T16:37:25.671Z,6.20
2017-12-15T16:39:53.963Z,3.03
2017-12-15T16:42:22.339Z,5.57
2017-12-15T16:44:50.670Z,7.60
2017-12-15T16:47:18.988Z,13.23
2017-12-15T16:49:47.279Z,5.23
2017-12-15T16:52:15.731Z,5.57
2017-12-15T16:54:44.075Z,10.10
2017-12-15T16:57:12.612Z,6.33
2017-12-15T16:59:40.935Z,15.80
2017-12-15T17:02:09.445Z,12.87
2017-12-15T17:04:37.763Z,16.47
2017-12-15T17:07:06.648Z,19.77
2017-12-15T17:09:34.984Z,15.57
2017-12-15T17:12:03.331Z,23.07
2017-12-15T17:14:31.591Z,26.90
2017-12-15T17:16:59.862Z,23.90
2017-12-15T17:19:28.428Z,32.97
2017-12-15T17:21:56.727Z,36.37
2017-12-15T17:24:25.031Z,37.00
2017-12-15T17:26:53.476Z,30.43
2017-12-15T17:29:21.792Z,36.33
2017-12-15T17:31:50.212Z,42.90
2017-12-15T17:34:18.551Z,37.47
2017-12-15T17:36:46.887Z,40.73
2017-12-15T17:39:15.163Z,28.40
2017-12-15T17:41:43.492Z,39.07
2017-12-15T17:44:11.818Z,36.77
2017-12-15T17:46:40.291Z,39.33
2017-12-15T17:49:08.600Z,38.33
2017-12-15T17:51:36.909Z,33.00
2017-12-15T17:54:05.287Z,28.97
2017-12-15T17:56:33.627Z,28.83
2017-12-15T17:59:01.931Z,34.07
2017-12-15T18:01:30.699Z,27.13
2017-12-15T18:03:59.004Z,37.03
2017-12-15T18:06:30.342Z,38.57
2017-12-15T18:08:58.647Z,28.93
2017-12-15T18:11:27.132Z,23.20
2017-12-15T18:13:55.579Z,22.63
2017-12-15T18:16:23.867Z,30.03
2017-12-15T18:18:52.167Z,28.70
2017-12-15T18:21:20.465Z,19.70
2017-12-15T18:23:48.800Z,21.13
2017-12-15T18:26:17.195Z,26.67
2017-12-15T18:28:45.474Z,23.30
2017-12-15T18:31:13.773Z,20.00
2017-12-15T18:33:43.411Z,26.37
2017-12-15T18:36:11.729Z,19.10
2017-12-15T18:38:40.087Z,21.83
2017-12-15T18:41:08.518Z,28.67
2017-12-15T18:43:36.795Z,27.97
2017-12-15T18:46:05.130Z,17.17
2017-12-15T18:48:33.595Z,22.80
2017-12-15T18:51:01.964Z,28.53
2017-12-15T18:53:30.308Z,17.93
2017-12-15T18:55:58.639Z,20.00
2017-12-15T18:58:26.975Z,20.53
2017-12-15T19:00:55.632Z,20.07
2017-12-15T19:03:24.309Z,18.50
2017-12-15T19:05:52.675Z,24.60
2017-12-15T19:08:21.171Z,23.50
2017-12-15T19:10:49.540Z,15.30
2017-12-15T19:13:17.836Z,14.07
2017-12-15T19:15:46.235Z,15.00
2017-12-15T19:18:14.736Z,13.70
2017-12-15T19:20:43.041Z,12.33
2017-12-15T19:23:11.287Z,14.33
2017-12-15T19:25:39.603Z,14.27
2017-12-15T19:28:08.074Z,15.80
2017-12-15T19:30:36.743Z,13.00
2017-12-15T19:33:05.031Z,15.33
2017-12-15T19:35:33.415Z,14.50
2017-12-15T19:38:01.695Z,13.23
2017-12-15T19:40:30.054Z,12.17
2017-12-15T19:42:58.698Z,15.07
2017-12-15T19:45:26.980Z,16.10
2017-12-15T19:47:55.278Z,11.33
2017-12-15T19:50:23.590Z,9.60
2017-12-15T19:52:52.055Z,11.83
2017-12-15T19:55:20.590Z,11.40
2017-12-15T19:57:48.983Z,11.70
2017-12-15T20:00:17.280Z,14.97
2017-12-15T20:02:45.576Z,7.63
2017-12-15T20:05:14.514Z,13.03
2017-12-15T20:07:43.316Z,12.37
2017-12-15T20:10:12.504Z,11.00
2017-12-15T20:12:41.079Z,8.60
2017-12-15T20:15:09.378Z,9.40
2017-12-15T20:17:37.845Z,8.63
2017-12-15T20:20:06.163Z,8.03
2017-12-15T20:22:34.594Z,6.63
2017-12-15T20:25:02.908Z,9.43
2017-12-15T20:27:31.436Z,9.37
2017-12-15T20:30:00.242Z,9.50
2017-12-15T20:32:28.636Z,11.87
2017-12-15T20:34:57.000Z,9.70
2017-12-15T20:37:25.425Z,7.83
2017-12-15T20:39:53.706Z,8.80
2017-12-15T20:42:22.039Z,11.30
2017-12-15T20:44:50.318Z,14.93
2017-12-15T20:47:18.676Z,11.13
2017-12-15T20:49:47.171Z,9.47
2017-12-15T20:52:15.544Z,11.33
2017-12-15T20:54:44.272Z,10.00
2017-12-15T20:57:12.686Z,16.50
2017-12-15T20:59:40.972Z,6.77
2017-12-15T21:02:09.328Z,8.73
2017-12-15T21:04:37.807Z,10.73
2017-12-15T21:07:06.956Z,17.70
2017-12-15T21:09:35.305Z,9.00
2017-12-15T21:12:03.772Z,8.57
2017-12-15T21:14:34.075Z,12.10
2017-12-15T21:17:03.248Z,24.43
2017-12-15T21:19:31.576Z,6.87
2017-12-15T21:21:59.988Z,5.57
2017-12-15T21:24:28.790Z,6.63
2017-12-15T21:26:57.207Z,9.40
2017-12-15T21:29:25.723Z,6.23
2017-12-15T21:31:54.379Z,5.97
2017-12-15T21:34:22.715Z,7.73
2017-12-15T21:36:51.140Z,5.20
2017-12-15T21:39:19.763Z,6.60
2017-12-15T21:41:48.096Z,6.97
2017-12-15T21:44:16.542Z,4.93
2017-12-15T21:46:44.810Z,5.07
2017-12-15T21:49:13.770Z,8.53
2017-12-15T21:51:42.413Z,6.60
2017-12-15T21:54:10.851Z,6.90
2017-12-15T21:56:40.451Z,4.93
2017-12-15T21:59:10.892Z,5.80
2017-12-15T22:01:41.345Z,7.17
2017-12-15T22:04:09.918Z,5.07
2017-12-15T22:06:39.838Z,5.60
2017-12-15T22:09:10.723Z,4.93
2017-12-15T22:11:39.738Z,4.33
2017-12-15T22:14:08.291Z,4.87
2017-12-15T22:16:36.636Z,5.40
2017-12-15T22:19:05.176Z,4.60
2017-12-15T22:21:35.548Z,5.90
2017-12-15T22:24:03.839Z,4.93
2017-12-15T22:26:32.207Z,4.60
2017-12-15T22:29:05.235Z,5.60
2017-12-15T22:31:34.526Z,5.73
2017-12-15T22:34:03.614Z,5.13
2017-12-15T22:36:32.098Z,5.20
2017-12-15T22:39:00.555Z,6.30
2017-12-15T22:41:28.850Z,4.87
2017-12-15T22:43:57.207Z,4.90
2017-12-15T22:46:25.567Z,5.30
2017-12-15T22:48:53.847Z,4.90
2017-12-15T22:51:22.197Z,4.07
2017-12-15T22:53:50.506Z,5.77
2017-12-15T22:56:18.914Z,4.90
2017-12-15T22:58:47.222Z,4.60
2017-12-15T23:01:15.658Z,5.47
2017-12-15T23:03:44.558Z,4.53
2017-12-15T23:06:13.251Z,4.30
2017-12-15T23:08:41.574Z,3.93
2017-12-15T23:11:09.916Z,4.20
2017-12-15T23:13:38.239Z,3.73
2017-12-15T23:16:06.579Z,5.80
2017-12-15T23:18:34.942Z,11.00
2017-12-15T23:21:03.539Z,5.10
2017-12-15T23:23:31.915Z,5.10
2017-12-15T23:26:00.299Z,4.73
2017-12-15T23:28:29.460Z,5.33
2017-12-15T23:30:58.822Z,5.73
2017-12-15T23:33:27.281Z,6.30
2017-12-15T23:35:55.771Z,5.00
2017-12-15T23:38:24.082Z,4.80
2017-12-15T23:40:53.544Z,4.27
2017-12-15T23:43:22.087Z,4.57
2017-12-15T23:45:50.695Z,5.03
2017-12-15T23:48:19.399Z,5.57
2017-12-15T23:50:48.063Z,5.60
2017-12-15T23:53:16.797Z,4.50
2017-12-15T23:55:56.716Z,4.80
2017-12-15T23:58:25.404Z,4.60
